Time;durP1;ratioP1;P1;durP2;ratioP2;P2;SDS_P1;SDS_P2;PMS_P1;PMS_P2;Temp;Humidity;BMP_temperature;BMP_pressure;BME280_temperature;BME280_humidity;BME280_pressure;Samples;Min_cycle;Max_cycle;Signal;HPM_P1;HPM_P2
2024/04/09 00:00:46;;;;;;;91.27;85.97;;;22.20;1.00;;;;;;2609137;39;20694;-67
2024/04/09 00:03:12;;;;;;;91.30;86.00;;;22.20;1.00;;;;;;2608704;54;20527;-68
2024/04/09 00:05:41;;;;;;;91.00;85.80;;;22.20;1.00;;;;;;2608404;47;20430;-68
2024/04/09 00:08:10;;;;;;;92.53;87.20;;;22.20;1.00;;;;;;2610771;54;20423;-69
2024/04/09 00:10:37;;;;;;;90.90;85.60;;;22.10;1.00;;;;;;2610801;51;20432;-70
2024/04/09 00:13:06;;;;;;;90.50;85.30;;;22.20;1.00;;;;;;2610547;54;20395;-70
2024/04/09 00:15:33;;;;;;;90.63;85.43;;;22.20;1.00;;;;;;2610650;54;20422;-71
2024/04/09 00:18:11;;;;;;;90.90;85.70;;;22.10;1.00;;;;;;2611052;47;20449;-70
2024/04/09 00:20:39;;;;;;;90.87;85.60;;;22.10;1.00;;;;;;2610373;46;20455;-69
2024/04/09 00:23:06;;;;;;;90.80;85.53;;;22.10;1.00;;;;;;2610411;47;20462;-69
2024/04/09 00:25:31;;;;;;;91.40;86.10;;;22.10;1.00;;;;;;2610303;54;20427;-69
2024/04/09 00:27:59;;;;;;;91.10;85.80;;;22.10;1.00;;;;;;2610471;54;20427;-69
2024/04/09 00:30:27;;;;;;;90.50;85.30;;;22.10;1.00;;;;;;2612862;54;20889;-68
2024/04/09 00:32:53;;;;;;;91.10;85.80;;;22.10;1.00;;;;;;2609960;54;20411;-68
2024/04/09 00:35:22;;;;;;;90.37;85.17;;;22.10;1.00;;;;;;2610305;54;20472;-67
2024/04/09 00:37:52;;;;;;;91.10;85.80;;;22.10;1.00;;;;;;2609934;54;20439;-65
2024/04/09 00:40:20;;;;;;;91.00;85.80;;;22.10;1.00;;;;;;2609824;47;20444;-67
2024/04/09 00:42:49;;;;;;;90.13;85.03;;;22.10;1.00;;;;;;2609792;54;20499;-67
2024/04/09 00:45:19;;;;;;;90.27;85.07;;;22.10;1.00;;;;;;2609883;54;20443;-65
2024/04/09 00:47:48;;;;;;;91.00;85.70;;;22.10;1.00;;;;;;2609728;47;20507;-67
2024/04/09 00:50:15;;;;;;;91.33;86.03;;;22.10;1.00;;;;;;2612620;54;20471;-65
2024/04/09 00:52:42;;;;;;;90.67;85.47;;;22.10;1.00;;;;;;2610160;54;20495;-66
2024/04/09 00:55:10;;;;;;;91.07;85.87;;;22.10;1.00;;;;;;2609927;54;20419;-66
2024/04/09 00:57:39;;;;;;;90.80;85.50;;;22.10;1.00;;;;;;2610222;54;20430;-66
2024/04/09 01:00:07;;;;;;;90.63;85.43;;;22.10;1.00;;;;;;2609100;54;20427;-66
2024/04/09 01:02:33;;;;;;;90.00;84.70;;;22.00;1.00;;;;;;2608570;39;20789;-65
2024/04/09 01:05:00;;;;;;;91.53;86.23;;;22.00;1.00;;;;;;2608039;54;20455;-66
2024/04/09 01:07:27;;;;;;;90.70;85.50;;;22.00;1.00;;;;;;2608317;54;20406;-66
2024/04/09 01:09:53;;;;;;;91.80;86.40;;;22.00;1.00;;;;;;2609709;54;20412;-66
2024/04/09 01:12:18;;;;;;;91.93;86.53;;;22.00;1.00;;;;;;2610030;54;20989;-67
2024/04/09 01:14:45;;;;;;;91.70;86.30;;;22.00;1.00;;;;;;2609655;54;20239;-65
2024/04/09 01:17:10;;;;;;;91.23;85.93;;;22.00;1.00;;;;;;2612282;47;20175;-66
2024/04/09 01:19:36;;;;;;;93.20;87.80;;;22.00;1.00;;;;;;2610398;54;20511;-66
2024/04/09 01:22:04;;;;;;;92.40;87.00;;;22.00;1.00;;;;;;2610124;54;20427;-66
2024/04/09 01:24:32;;;;;;;92.40;87.10;;;22.00;1.00;;;;;;2610894;39;20554;-66
2024/04/09 01:26:58;;;;;;;92.30;86.90;;;22.00;1.00;;;;;;2610562;54;20423;-64
2024/04/09 01:29:24;;;;;;;91.60;86.30;;;22.00;1.00;;;;;;2611805;54;20422;-65
2024/04/09 01:31:49;;;;;;;91.90;86.53;;;22.00;1.00;;;;;;2609966;39;20850;-66
2024/04/09 01:34:15;;;;;;;92.00;86.70;;;22.00;1.00;;;;;;2609942;54;20249;-67
2024/04/09 01:36:43;;;;;;;91.60;86.30;;;22.00;1.00;;;;;;2611082;54;20163;-67
2024/04/09 01:39:09;;;;;;;91.47;86.27;;;22.00;1.00;;;;;;2609357;54;20491;-66
2024/04/09 01:41:36;;;;;;;92.13;86.83;;;22.00;1.00;;;;;;2610132;47;20450;-66
2024/04/09 01:44:02;;;;;;;92.00;86.70;;;22.00;1.00;;;;;;2609781;54;20407;-66
2024/04/09 01:46:28;;;;;;;91.77;86.47;;;22.00;1.00;;;;;;2609340;54;20407;-66
2024/04/09 01:48:54;;;;;;;91.33;86.03;;;22.00;1.00;;;;;;2610258;47;20423;-66
2024/04/09 01:51:19;;;;;;;91.23;85.93;;;22.00;1.00;;;;;;2610124;47;20163;-67
2024/04/09 01:53:48;;;;;;;89.83;84.63;;;22.00;1.00;;;;;;2609659;54;20186;-66
2024/04/09 01:56:15;;;;;;;92.20;86.80;;;22.00;1.00;;;;;;2609580;54;20183;-66
2024/04/09 01:58:41;;;;;;;91.30;86.00;;;22.00;1.00;;;;;;2609092;54;20427;-66
2024/04/09 02:01:09;;;;;;;92.60;87.20;;;21.90;1.00;;;;;;2608020;47;20423;-66
2024/04/09 02:03:38;;;;;;;92.33;86.93;;;22.00;1.00;;;;;;2608349;54;20540;-66
2024/04/09 02:06:07;;;;;;;92.37;87.07;;;22.00;1.00;;;;;;2608007;47;20437;-66
2024/04/09 02:08:34;;;;;;;91.70;86.40;;;22.00;1.00;;;;;;2609319;54;20411;-63
2024/04/09 02:11:01;;;;;;;91.97;86.67;;;22.00;1.00;;;;;;2609727;54;20416;-65
2024/04/09 02:13:29;;;;;;;92.40;87.00;;;22.00;1.00;;;;;;2609303;47;20423;-66
2024/04/09 02:16:01;;;;;;;92.40;87.10;;;22.00;1.00;;;;;;2610177;47;20420;-66
2024/04/09 02:18:26;;;;;;;92.37;87.07;;;22.10;1.00;;;;;;2609685;54;20438;-66
2024/04/09 02:20:53;;;;;;;91.80;86.50;;;22.20;1.00;;;;;;2609804;54;21174;-66
2024/04/09 02:23:19;;;;;;;91.73;86.33;;;22.20;1.00;;;;;;2609730;54;20162;-65
2024/04/09 02:25:45;;;;;;;92.37;86.97;;;22.30;1.00;;;;;;2609733;54;20560;-66
2024/04/09 02:28:12;;;;;;;92.10;86.80;;;22.30;1.00;;;;;;2609696;47;20423;-66
2024/04/09 02:30:37;;;;;;;92.73;87.40;;;22.30;1.00;;;;;;2610658;54;20418;-67
2024/04/09 02:33:04;;;;;;;92.20;86.80;;;22.40;1.00;;;;;;2610610;54;20933;-66
2024/04/09 02:35:30;;;;;;;91.80;86.50;;;22.40;1.00;;;;;;2610576;54;20155;-67
2024/04/09 02:37:57;;;;;;;91.73;86.43;;;22.40;1.00;;;;;;2611617;54;20448;-67
2024/04/09 02:40:25;;;;;;;90.97;85.70;;;22.40;1.00;;;;;;2610426;54;20158;-67
2024/04/09 02:42:51;;;;;;;91.30;86.00;;;22.40;1.00;;;;;;2611810;54;20419;-67
2024/04/09 02:45:20;;;;;;;92.30;86.90;;;22.40;1.00;;;;;;2610797;54;20463;-67
2024/04/09 02:47:46;;;;;;;92.10;86.70;;;22.40;1.00;;;;;;2610151;54;21016;-66
2024/04/09 02:50:12;;;;;;;92.80;87.30;;;22.40;1.00;;;;;;2610723;47;20458;-66
2024/04/09 02:52:38;;;;;;;92.63;87.23;;;22.30;1.00;;;;;;2610872;39;20545;-66
2024/04/09 02:55:06;;;;;;;92.70;87.30;;;22.30;1.00;;;;;;2610536;51;20182;-67
2024/04/09 02:57:32;;;;;;;91.70;86.40;;;22.30;1.00;;;;;;2610326;54;20423;-66
2024/04/09 02:59:58;;;;;;;92.97;87.57;;;22.30;1.00;;;;;;2608821;47;20503;-65
2024/04/09 03:02:24;;;;;;;92.93;87.43;;;22.20;1.00;;;;;;2608694;54;20444;-67
2024/04/09 03:04:53;;;;;;;93.27;87.77;;;22.20;1.00;;;;;;2608450;54;20498;-67
2024/04/09 03:07:19;;;;;;;92.37;86.97;;;22.20;1.00;;;;;;2609585;54;20166;-67
2024/04/09 03:09:44;;;;;;;93.47;88.07;;;22.20;1.00;;;;;;2610499;47;20423;-67
2024/04/09 03:12:10;;;;;;;93.63;88.13;;;22.10;1.00;;;;;;2610055;54;20170;-67
2024/04/09 03:14:36;;;;;;;92.67;87.27;;;22.10;1.00;;;;;;2610115;54;20181;-66
2024/04/09 03:17:05;;;;;;;93.30;87.80;;;22.10;1.00;;;;;;2610368;54;20171;-62
2024/04/09 03:19:31;;;;;;;92.70;87.30;;;22.10;1.00;;;;;;2610309;54;20672;-62
2024/04/09 03:21:56;;;;;;;92.90;87.50;;;22.10;1.00;;;;;;2610411;47;20419;-63
2024/04/09 03:24:22;;;;;;;93.10;87.70;;;22.10;1.00;;;;;;2610426;54;20193;-62
2024/04/09 03:26:49;;;;;;;92.10;86.70;;;22.10;1.00;;;;;;2610217;46;20171;-63
2024/04/09 03:29:15;;;;;;;93.53;88.03;;;22.10;1.00;;;;;;2610549;54;20245;-62
2024/04/09 03:31:40;;;;;;;93.77;88.27;;;22.10;1.00;;;;;;2610662;47;20399;-62
2024/04/09 03:34:06;;;;;;;92.57;87.17;;;22.10;1.00;;;;;;2609437;39;20690;-62
2024/04/09 03:36:32;;;;;;;92.90;87.50;;;22.10;1.00;;;;;;2611086;54;20176;-66
2024/04/09 03:38:57;;;;;;;91.67;86.27;;;22.00;1.00;;;;;;2610892;47;20175;-66
2024/04/09 03:41:23;;;;;;;92.60;87.20;;;22.00;1.00;;;;;;2609864;54;20728;-66
2024/04/09 03:43:49;;;;;;;91.30;86.00;;;22.00;1.00;;;;;;2609986;54;20566;-67
2024/04/09 03:46:19;;;;;;;92.07;86.77;;;22.00;1.00;;;;;;2610360;51;20206;-67
2024/04/09 03:48:46;;;;;;;92.10;86.70;;;22.00;1.00;;;;;;2610383;54;20443;-66
2024/04/09 03:51:14;;;;;;;92.90;87.50;;;22.00;1.00;;;;;;2609932;54;20511;-67
2024/04/09 03:53:40;;;;;;;92.10;86.70;;;22.00;1.00;;;;;;2610503;39;20848;-67
2024/04/09 03:56:06;;;;;;;92.20;86.90;;;22.00;1.00;;;;;;2610318;54;20442;-67
2024/04/09 03:58:37;;;;;;;92.43;87.03;;;22.00;1.00;;;;;;2609506;47;20423;-67
2024/04/09 04:01:04;;;;;;;92.20;86.80;;;22.00;1.00;;;;;;2608560;47;20420;-67
2024/04/09 04:03:31;;;;;;;92.83;87.33;;;21.90;1.00;;;;;;2608657;54;20554;-67
2024/04/09 04:06:01;;;;;;;92.70;87.20;;;22.00;1.00;;;;;;2607623;47;20432;-66
2024/04/09 04:08:31;;;;;;;92.40;86.90;;;22.00;1.00;;;;;;2610349;47;20419;-67
2024/04/09 04:11:05;;;;;;;93.20;87.60;;;22.00;1.00;;;;;;2609921;54;20542;-67
2024/04/09 04:13:33;;;;;;;92.80;87.30;;;22.00;1.00;;;;;;2609916;47;20419;-67
2024/04/09 04:16:06;;;;;;;93.30;87.80;;;22.00;1.00;;;;;;2609871;47;20426;-78
2024/04/09 04:18:36;;;;;;;92.90;87.40;;;22.00;1.00;;;;;;2610834;39;20814;-68
2024/04/09 04:21:07;;;;;;;93.60;88.10;;;22.00;1.00;;;;;;2610172;54;20426;-68
2024/04/09 04:23:33;;;;;;;92.20;86.80;;;22.00;1.00;;;;;;2610178;47;20443;-68
2024/04/09 04:26:07;;;;;;;92.50;87.00;;;22.00;1.00;;;;;;2612030;47;20938;-62
2024/04/09 04:28:35;;;;;;;92.10;86.60;;;22.00;1.00;;;;;;2613202;54;20411;-62
2024/04/09 04:31:04;;;;;;;92.23;86.80;;;22.00;1.00;;;;;;2610127;46;20428;-63
2024/04/09 04:33:30;;;;;;;92.83;87.27;;;22.00;1.00;;;;;;2610364;54;20428;-62
2024/04/09 04:35:56;;;;;;;92.70;87.20;;;22.00;1.00;;;;;;2610015;54;20937;-62
2024/04/09 04:38:22;;;;;;;92.20;86.70;;;22.00;1.00;;;;;;2610117;54;20207;-62
2024/04/09 04:40:49;;;;;;;92.33;86.83;;;21.90;1.00;;;;;;2610483;39;20580;-62
2024/04/09 04:43:16;;;;;;;92.70;87.10;;;21.90;1.00;;;;;;2610932;46;20437;-63
2024/04/09 04:45:45;;;;;;;92.30;86.70;;;21.90;1.00;;;;;;2610216;54;20404;-66
2024/04/09 04:48:12;;;;;;;94.20;88.50;;;21.90;1.00;;;;;;2609829;54;20443;-66
2024/04/09 04:50:38;;;;;;;93.23;87.73;;;21.90;1.00;;;;;;2609372;54;20444;-66
2024/04/09 04:53:04;;;;;;;93.43;87.83;;;21.90;1.00;;;;;;2609651;54;20546;-65
2024/04/09 04:55:32;;;;;;;92.30;86.90;;;21.90;1.00;;;;;;2610345;39;20482;-66
2024/04/09 04:57:58;;;;;;;91.83;86.33;;;21.90;1.00;;;;;;2612806;54;20471;-66
2024/04/09 05:00:24;;;;;;;93.33;87.73;;;21.90;1.00;;;;;;2607792;47;20435;-65
2024/04/09 05:02:50;;;;;;;92.43;86.93;;;21.90;1.00;;;;;;2607573;54;20495;-65
2024/04/09 05:05:16;;;;;;;92.80;87.50;;;21.90;1.00;;;;;;2608471;47;20179;-66
2024/04/09 05:07:42;;;;;;;96.87;91.13;;;21.90;1.00;;;;;;2610220;39;20581;-65
2024/04/09 05:10:13;;;;;;;91.90;86.50;;;21.90;1.00;;;;;;2610070;54;20155;-66
2024/04/09 05:12:50;;;;;;;92.10;86.70;;;21.90;1.00;;;;;;2610031;39;20606;-67
2024/04/09 05:15:16;;;;;;;92.00;86.70;;;21.90;1.00;;;;;;2609607;54;21090;-65
2024/04/09 05:17:43;;;;;;;94.10;88.70;;;21.90;1.00;;;;;;2609916;54;20467;-67
2024/04/09 05:20:12;;;;;;;93.37;87.97;;;21.90;1.00;;;;;;2609736;47;20431;-66
2024/04/09 05:22:39;;;;;;;91.90;86.60;;;21.90;1.00;;;;;;2610073;54;20419;-66
2024/04/09 05:25:05;;;;;;;93.13;87.73;;;21.90;1.00;;;;;;2610897;39;20807;-66
2024/04/09 05:27:31;;;;;;;93.33;87.93;;;21.90;1.00;;;;;;2610778;39;20810;-63
2024/04/09 05:29:57;;;;;;;92.53;87.23;;;21.90;1.00;;;;;;2610667;46;20424;-63
2024/04/09 05:32:24;;;;;;;93.90;88.40;;;21.90;1.00;;;;;;2609452;54;20431;-64
2024/04/09 05:34:49;;;;;;;93.87;88.47;;;21.90;1.00;;;;;;2609540;54;20451;-64
2024/04/09 05:37:15;;;;;;;92.33;86.97;;;21.90;1.00;;;;;;2610521;54;20408;-66
2024/04/09 05:39:46;;;;;;;93.23;87.73;;;21.80;1.00;;;;;;2611167;39;20820;-67
2024/04/09 05:42:15;;;;;;;93.83;88.23;;;21.80;1.00;;;;;;2609405;47;20426;-68
2024/04/09 05:44:41;;;;;;;93.20;87.80;;;21.80;1.00;;;;;;2610222;54;20418;-68
2024/04/09 05:47:07;;;;;;;92.90;87.40;;;21.80;1.00;;;;;;2609935;54;20494;-67
2024/04/09 05:49:36;;;;;;;93.40;87.80;;;21.80;1.00;;;;;;2610294;47;20432;-67
2024/04/09 05:52:01;;;;;;;94.10;88.50;;;21.80;1.00;;;;;;2610044;54;20411;-67
2024/04/09 05:54:28;;;;;;;94.10;88.50;;;21.80;1.00;;;;;;2610786;54;21023;-68
2024/04/09 05:56:54;;;;;;;96.17;90.47;;;21.80;1.00;;;;;;2613914;54;20166;-70
2024/04/09 05:59:20;;;;;;;94.03;88.53;;;21.80;1.00;;;;;;2611045;47;20599;-70
2024/04/09 06:01:46;;;;;;;93.00;87.60;;;21.80;1.00;;;;;;2609923;47;20407;-69
2024/04/09 06:04:11;;;;;;;93.40;88.00;;;21.80;1.00;;;;;;2608257;54;20427;-70
2024/04/09 06:06:37;;;;;;;93.17;87.80;;;21.80;1.00;;;;;;2610328;54;20531;-69
2024/04/09 06:09:03;;;;;;;94.73;89.13;;;21.80;1.00;;;;;;2610634;54;20704;-68
2024/04/09 06:11:29;;;;;;;94.67;89.07;;;21.90;1.00;;;;;;2614082;54;20158;-68
2024/04/09 06:13:55;;;;;;;94.60;88.80;;;22.00;1.00;;;;;;2614062;54;20154;-68
2024/04/09 06:16:21;;;;;;;95.00;89.30;;;22.10;1.00;;;;;;2614157;54;20166;-69
2024/04/09 06:18:47;;;;;;;97.87;91.77;;;22.20;1.00;;;;;;2614759;39;20252;-67
2024/04/09 06:21:13;;;;;;;98.07;91.90;;;22.30;1.00;;;;;;2613611;54;20431;-68
2024/04/09 06:23:38;;;;;;;97.90;91.80;;;22.70;1.00;;;;;;2613657;47;20431;-68
2024/04/09 06:26:04;;;;;;;98.73;92.53;;;22.90;1.00;;;;;;2614045;54;20166;-66
2024/04/09 06:28:30;;;;;;;97.40;91.30;;;23.10;1.00;;;;;;2613698;39;20650;-68
2024/04/09 06:30:56;;;;;;;97.53;91.43;;;23.20;1.00;;;;;;2614144;39;20376;-68
2024/04/09 06:33:22;;;;;;;96.83;90.83;;;23.40;1.00;;;;;;2614228;54;20475;-68
2024/04/09 06:35:48;;;;;;;97.33;91.40;;;23.40;1.00;;;;;;2614229;47;20166;-62
2024/04/09 06:38:16;;;;;;;96.60;90.80;;;23.50;1.00;;;;;;2612928;54;20446;-63
2024/04/09 06:40:42;;;;;;;99.17;92.77;;;23.40;1.00;;;;;;2612625;54;20408;-67
2024/04/09 06:43:10;;;;;;;76.77;73.17;;;23.20;1.00;;;;;;2612468;54;20442;-66
2024/04/09 06:45:36;;;;;;;80.30;76.30;;;23.20;1.00;;;;;;2613862;31;20649;-59
2024/04/09 06:48:02;;;;;;;80.53;76.63;;;23.10;1.00;;;;;;2613798;49;20418;-60
2024/04/09 06:50:28;;;;;;;81.17;77.17;;;23.20;1.00;;;;;;2614082;47;20439;-62
2024/04/09 06:52:54;;;;;;;79.53;75.63;;;23.10;1.00;;;;;;2612164;47;20438;-64
2024/04/09 06:55:20;;;;;;;77.60;73.90;;;23.10;1.00;;;;;;2608052;54;20460;-65
2024/04/09 06:57:45;;;;;;;78.50;74.60;;;22.90;1.00;;;;;;2610625;54;20211;-65
2024/04/09 07:00:14;;;;;;;77.97;74.17;;;22.90;1.00;;;;;;2610311;54;20165;-66
2024/04/09 07:02:40;;;;;;;78.40;74.60;;;22.80;1.00;;;;;;2609771;54;20170;-65
2024/04/09 07:05:07;;;;;;;77.10;73.30;;;22.70;1.00;;;;;;2611361;51;20501;-66
2024/04/09 07:07:34;;;;;;;77.87;74.07;;;22.70;1.00;;;;;;2612966;47;20435;-68
2024/04/09 07:10:00;;;;;;;77.70;73.90;;;22.50;1.00;;;;;;2611431;54;20423;-67
2024/04/09 07:12:27;;;;;;;75.20;71.60;;;22.40;1.00;;;;;;2612464;54;20836;-68
2024/04/09 07:14:53;;;;;;;76.90;73.20;;;22.40;1.00;;;;;;2611537;54;21006;-68
2024/04/09 07:17:19;;;;;;;75.60;72.00;;;22.30;1.00;;;;;;2611060;39;20846;-68
2024/04/09 07:19:45;;;;;;;76.70;73.00;;;22.30;1.00;;;;;;2612811;54;20439;-68
2024/04/09 07:22:11;;;;;;;76.20;72.60;;;22.20;1.00;;;;;;2612888;31;20960;-68
2024/04/09 07:24:37;;;;;;;77.10;73.40;;;22.20;1.00;;;;;;2613378;54;20433;-68
2024/04/09 07:27:04;;;;;;;78.50;74.60;;;22.20;1.00;;;;;;2612234;54;21052;-68
2024/04/09 07:29:31;;;;;;;77.90;74.10;;;22.20;1.00;;;;;;2610768;54;20423;-68
2024/04/09 07:31:57;;;;;;;77.67;73.97;;;22.20;1.00;;;;;;2611494;47;20431;-67
2024/04/09 07:34:25;;;;;;;76.80;73.10;;;22.10;1.00;;;;;;2612606;54;20423;-67
2024/04/09 07:36:50;;;;;;;76.67;72.97;;;22.10;1.00;;;;;;2610322;54;20165;-68
2024/04/09 07:39:16;;;;;;;76.43;72.73;;;22.10;1.00;;;;;;2611188;54;20424;-68
2024/04/09 07:41:42;;;;;;;76.80;73.10;;;22.10;1.00;;;;;;2611652;51;20744;-67
2024/04/09 07:44:08;;;;;;;77.47;73.67;;;22.10;1.00;;;;;;2610431;54;20166;-65
2024/04/09 07:46:33;;;;;;;76.80;73.10;;;22.00;1.00;;;;;;2610541;54;20544;-74
2024/04/09 07:49:04;;;;;;;76.47;72.77;;;22.00;1.00;;;;;;2611965;54;20201;-75
2024/04/09 07:51:30;;;;;;;76.57;72.87;;;22.00;1.00;;;;;;2613353;54;20178;-73
2024/04/09 07:53:56;;;;;;;76.40;72.70;;;22.00;1.00;;;;;;2613752;54;20554;-73
2024/04/09 07:56:22;;;;;;;76.50;72.70;;;22.00;1.00;;;;;;2614756;39;20940;-75
2024/04/09 07:58:47;;;;;;;77.73;73.93;;;21.90;1.00;;;;;;2609710;54;20515;-74
2024/04/09 08:01:13;;;;;;;77.50;73.70;;;21.90;1.00;;;;;;2610375;47;20205;-74
2024/04/09 08:03:39;;;;;;;77.20;73.40;;;21.90;1.00;;;;;;2611751;54;20174;-75
2024/04/09 08:06:06;;;;;;;77.30;73.60;;;21.90;1.00;;;;;;2610712;54;20151;-74
2024/04/09 08:08:32;;;;;;;75.80;72.10;;;21.90;1.00;;;;;;2613134;54;20716;-74
2024/04/09 08:10:58;;;;;;;77.67;73.97;;;21.90;1.00;;;;;;2613851;54;20423;-75
2024/04/09 08:13:25;;;;;;;76.37;72.67;;;21.80;1.00;;;;;;2612550;54;20416;-74
2024/04/09 08:15:52;;;;;;;76.80;73.10;;;21.80;1.00;;;;;;2612482;54;20412;-70
2024/04/09 08:18:18;;;;;;;77.30;73.50;;;21.90;1.00;;;;;;2613500;54;20412;-70
2024/04/09 08:20:44;;;;;;;76.60;72.80;;;21.90;1.00;;;;;;2612155;54;20434;-70
2024/04/09 08:23:10;;;;;;;77.20;73.40;;;21.90;1.00;;;;;;2612303;54;20448;-70
2024/04/09 08:25:36;;;;;;;77.13;73.33;;;21.90;1.00;;;;;;2612627;54;20431;-68
2024/04/09 08:28:02;;;;;;;77.70;73.90;;;21.90;1.00;;;;;;2609774;47;20207;-71
2024/04/09 08:30:28;;;;;;;77.40;73.67;;;21.90;1.00;;;;;;2611903;54;20558;-70
2024/04/09 08:32:55;;;;;;;77.30;73.57;;;21.90;1.00;;;;;;2612369;54;20416;-70
2024/04/09 08:35:20;;;;;;;76.90;73.20;;;21.90;1.00;;;;;;2610716;54;20539;-69
2024/04/09 08:37:47;;;;;;;78.33;74.43;;;21.80;1.00;;;;;;2609880;54;20426;-69
2024/04/09 08:40:17;;;;;;;77.90;74.10;;;21.80;1.00;;;;;;2613343;47;20186;-69
2024/04/09 08:42:45;;;;;;;76.70;72.97;;;21.80;1.00;;;;;;2611203;54;20809;-69
2024/04/09 08:45:15;;;;;;;77.37;73.57;;;21.80;1.00;;;;;;2613710;39;20846;-69
2024/04/09 08:47:43;;;;;;;78.23;74.33;;;21.80;1.00;;;;;;2613738;54;20431;-70
2024/04/09 08:50:09;;;;;;;77.33;73.53;;;21.70;1.00;;;;;;2611921;54;21038;-70
2024/04/09 08:52:35;;;;;;;77.50;73.70;;;21.70;1.00;;;;;;2612515;39;20986;-69
2024/04/09 08:55:05;;;;;;;76.63;72.83;;;21.80;1.00;;;;;;2612116;54;20423;-69
2024/04/09 08:57:31;;;;;;;76.90;73.10;;;21.80;1.00;;;;;;2613917;54;20426;-63
2024/04/09 08:59:57;;;;;;;77.90;74.00;;;21.70;1.00;;;;;;2612457;47;20431;-64
2024/04/09 09:02:23;;;;;;;76.83;73.03;;;21.70;1.00;;;;;;2610385;54;20207;-63
2024/04/09 09:04:49;;;;;;;76.57;72.77;;;21.70;1.00;;;;;;2613556;54;20400;-63
2024/04/09 09:07:18;;;;;;;76.87;73.07;;;21.70;1.00;;;;;;2614807;54;20471;-75
2024/04/09 09:09:44;;;;;;;76.80;73.00;;;21.70;1.00;;;;;;2613900;50;20419;-75
2024/04/09 09:12:11;;;;;;;77.10;73.30;;;21.70;1.00;;;;;;2613562;47;20419;-75
2024/04/09 09:14:37;;;;;;;78.00;74.20;;;21.70;1.00;;;;;;2612109;54;20395;-75
2024/04/09 09:17:04;;;;;;;76.73;72.93;;;21.70;1.00;;;;;;2613773;54;20416;-76
2024/04/09 09:19:31;;;;;;;77.83;73.93;;;21.70;1.00;;;;;;2614188;54;20964;-76
2024/04/09 09:21:58;;;;;;;78.20;74.20;;;21.70;1.00;;;;;;2614379;54;20442;-75
2024/04/09 09:24:24;;;;;;;78.43;74.53;;;21.70;1.00;;;;;;2613928;39;20828;-76
2024/04/09 09:27:03;;;;;;;78.70;74.70;;;21.70;1.00;;;;;;2613773;47;20415;-60
2024/04/09 09:29:30;;;;;;;77.57;73.77;;;21.70;1.00;;;;;;2612012;54;20211;-61
2024/04/09 09:31:55;;;;;;;78.03;74.13;;;21.70;1.00;;;;;;2613235;54;20964;-61
2024/04/09 09:34:34;;;;;;;76.83;73.13;;;21.70;1.00;;;;;;2612929;54;20519;-61
2024/04/09 09:37:01;;;;;;;76.60;72.90;;;21.70;1.00;;;;;;2613274;47;20286;-61
2024/04/09 09:39:28;;;;;;;78.10;74.30;;;21.70;1.00;;;;;;2612523;54;20396;-60
2024/04/09 09:41:56;;;;;;;77.33;73.53;;;21.70;1.00;;;;;;2612571;47;20436;-61
2024/04/09 09:44:24;;;;;;;77.63;73.83;;;21.70;1.00;;;;;;2613618;54;20414;-61
2024/04/09 09:46:51;;;;;;;78.23;74.43;;;21.70;1.00;;;;;;2613666;54;20513;-61
2024/04/09 09:49:19;;;;;;;76.87;73.10;;;21.80;1.00;;;;;;2612627;54;20403;-61
2024/04/09 09:51:45;;;;;;;77.80;74.00;;;21.80;1.00;;;;;;2612400;54;20454;-61
2024/04/09 09:54:11;;;;;;;77.60;73.80;;;21.80;1.00;;;;;;2613163;39;20869;-61
2024/04/09 09:56:39;;;;;;;77.30;73.50;;;21.70;1.00;;;;;;2613163;47;20461;-61
2024/04/09 09:59:07;;;;;;;77.37;73.67;;;21.70;1.00;;;;;;2613518;54;20170;-61
2024/04/09 10:01:35;;;;;;;78.40;74.60;;;21.70;1.00;;;;;;2611818;39;20933;-61
2024/04/09 10:04:03;;;;;;;77.60;73.80;;;21.70;1.00;;;;;;2612739;39;20819;-60
2024/04/09 10:06:30;;;;;;;76.17;72.47;;;21.70;1.00;;;;;;2613510;47;20540;-67
2024/04/09 10:08:55;;;;;;;78.00;74.20;;;21.70;1.00;;;;;;2613255;54;20487;-66
2024/04/09 10:11:21;;;;;;;78.30;74.40;;;21.70;1.00;;;;;;2611154;54;20415;-67
2024/04/09 10:13:54;;;;;;;77.90;74.10;;;21.80;1.00;;;;;;2612017;54;20166;-67
2024/04/09 10:16:22;;;;;;;78.43;74.63;;;21.90;1.00;;;;;;2613442;54;20496;-74
2024/04/09 10:18:51;;;;;;;77.47;73.67;;;21.90;1.00;;;;;;2613519;54;20408;-74
2024/04/09 10:21:27;;;;;;;77.70;73.80;;;22.00;1.00;;;;;;2614128;54;20520;-75
2024/04/09 10:24:00;;;;;;;79.80;75.80;;;22.00;1.00;;;;;;2613436;46;20510;-75
2024/04/09 10:26:27;;;;;;;78.90;74.90;;;22.10;1.00;;;;;;2613488;54;20447;-75
2024/04/09 10:29:02;;;;;;;78.40;74.30;;;22.20;1.00;;;;;;2611631;47;20420;-75
2024/04/09 10:31:30;;;;;;;79.10;75.00;;;22.40;1.00;;;;;;2612078;54;20514;-75
2024/04/09 10:33:59;;;;;;;79.63;75.53;;;22.50;1.00;;;;;;2614364;39;21028;-75
2024/04/09 10:36:24;;;;;;;79.30;75.30;;;22.60;1.00;;;;;;2611618;54;20436;-70
2024/04/09 10:38:50;;;;;;;78.97;75.07;;;22.60;1.00;;;;;;2612010;31;20974;-70
2024/04/09 10:41:16;;;;;;;80.20;76.20;;;22.70;1.00;;;;;;2612694;47;20166;-70
2024/04/09 10:43:42;;;;;;;79.20;75.20;;;22.80;1.00;;;;;;2612922;54;20403;-69
2024/04/09 10:46:09;;;;;;;78.90;74.90;;;22.90;1.00;;;;;;2612971;47;20170;-70
2024/04/09 10:48:34;;;;;;;78.90;74.93;;;23.00;1.00;;;;;;2611831;54;20422;-71
2024/04/09 10:51:00;;;;;;;79.00;75.00;;;22.90;1.00;;;;;;2613509;54;20459;-70
2024/04/09 10:53:26;;;;;;;79.03;75.13;;;22.80;1.00;;;;;;2613946;54;20529;-70
2024/04/09 10:56:02;;;;;;;79.47;75.47;;;22.80;1.00;;;;;;2612347;54;20254;-70
2024/04/09 10:58:28;;;;;;;76.63;72.83;;;22.70;1.00;;;;;;2613461;54;20690;-70
2024/04/09 11:00:57;;;;;;;77.13;73.33;;;22.70;1.00;;;;;;2613354;54;20439;-70
2024/04/09 11:03:23;;;;;;;78.73;74.83;;;22.60;1.00;;;;;;2612324;54;20174;-70
2024/04/09 11:05:51;;;;;;;78.90;74.90;;;22.50;1.00;;;;;;2613881;54;20399;-69
2024/04/09 11:08:30;;;;;;;78.80;74.90;;;22.50;1.00;;;;;;2610651;47;20459;-69
2024/04/09 11:10:57;;;;;;;78.70;74.70;;;22.40;1.00;;;;;;2614143;54;20421;-69
2024/04/09 11:13:23;;;;;;;76.43;72.63;;;22.30;1.00;;;;;;2613515;39;20857;-70
2024/04/09 11:15:48;;;;;;;76.40;72.50;;;22.30;1.00;;;;;;2610969;54;20496;-75
2024/04/09 11:18:20;;;;;;;76.77;72.87;;;22.20;1.00;;;;;;2609004;47;20415;-76
2024/04/09 11:20:56;;;;;;;78.00;74.10;;;22.20;1.00;;;;;;2612752;39;20778;-76
2024/04/09 11:23:23;;;;;;;78.60;74.70;;;22.20;1.00;;;;;;2610263;47;20507;-76
2024/04/09 11:25:52;;;;;;;78.83;74.93;;;22.20;1.00;;;;;;2608969;54;20428;-70
2024/04/09 11:28:18;;;;;;;78.30;74.40;;;22.20;1.00;;;;;;2607770;54;20957;-70
2024/04/09 11:30:46;;;;;;;78.87;74.97;;;22.20;1.00;;;;;;2609961;31;21058;-70
2024/04/09 11:33:15;;;;;;;78.77;74.77;;;22.20;1.00;;;;;;2611655;47;20423;-70
2024/04/09 11:35:41;;;;;;;78.37;74.47;;;22.20;1.00;;;;;;2610824;47;20411;-71
2024/04/09 11:38:09;;;;;;;78.40;74.50;;;22.20;1.00;;;;;;2610314;54;20446;-70
2024/04/09 11:40:35;;;;;;;79.83;75.83;;;22.30;1.00;;;;;;2610117;54;20415;-70
2024/04/09 11:43:01;;;;;;;79.40;75.50;;;22.30;1.00;;;;;;2609694;47;20429;-70
2024/04/09 11:45:33;;;;;;;79.63;75.73;;;22.40;1.00;;;;;;2607867;47;20415;-68
2024/04/09 11:47:59;;;;;;;78.70;74.90;;;22.40;1.00;;;;;;2609804;47;20511;-68
2024/04/09 11:50:25;;;;;;;78.60;74.80;;;22.30;1.00;;;;;;2610728;54;20426;-68
2024/04/09 11:52:52;;;;;;;78.20;74.40;;;22.30;1.00;;;;;;2610341;54;20198;-67
2024/04/09 11:55:17;;;;;;;78.30;74.50;;;22.30;1.00;;;;;;2611791;54;20434;-68
2024/04/09 11:57:45;;;;;;;78.73;74.93;;;22.30;1.00;;;;;;2611794;54;20988;-67
2024/04/09 12:00:12;;;;;;;79.00;75.10;;;22.40;1.00;;;;;;2609016;54;20201;-67
2024/04/09 12:02:49;;;;;;;79.20;75.30;;;22.40;1.00;;;;;;2608872;54;20479;-67
2024/04/09 12:05:15;;;;;;;79.10;75.30;;;22.40;1.00;;;;;;2608130;54;20508;-67
2024/04/09 12:07:41;;;;;;;79.53;75.63;;;22.40;1.00;;;;;;2609539;54;20424;-68
2024/04/09 12:10:08;;;;;;;78.77;74.97;;;22.50;1.00;;;;;;2608906;39;20462;-68
2024/04/09 12:12:34;;;;;;;79.40;75.50;;;22.50;1.00;;;;;;2608422;47;20420;-68
2024/04/09 12:15:00;;;;;;;80.10;76.10;;;22.50;1.00;;;;;;2610359;54;20423;-68
2024/04/09 12:17:27;;;;;;;78.80;74.90;;;22.50;1.00;;;;;;2610954;54;20412;-68
2024/04/09 12:19:53;;;;;;;80.00;76.10;;;22.50;1.00;;;;;;2611407;54;20431;-68
2024/04/09 12:22:19;;;;;;;79.03;75.13;;;22.60;1.00;;;;;;2607681;39;20877;-68
2024/04/09 12:24:45;;;;;;;79.03;75.13;;;22.60;1.00;;;;;;2607993;54;20181;-67
2024/04/09 12:27:11;;;;;;;80.80;76.80;;;22.60;1.00;;;;;;2607851;54;20419;-63
2024/04/09 12:29:37;;;;;;;79.67;75.77;;;22.60;1.00;;;;;;2607350;54;20989;-64
2024/04/09 12:32:04;;;;;;;79.00;75.10;;;22.60;1.00;;;;;;2609266;54;20178;-64
2024/04/09 12:34:30;;;;;;;78.10;74.30;;;22.60;1.00;;;;;;2611805;54;20178;-64